createdAt,value
2022-08-09T00:02:29.588Z,1.15
2022-08-09T00:07:31.164Z,0.98
2022-08-09T00:12:46.494Z,0.90
2022-08-09T00:18:05.709Z,1.23
2022-08-09T00:23:57.540Z,1.40
2022-08-09T00:28:35.236Z,1.35
2022-08-09T00:33:48.998Z,1.00
2022-08-09T00:38:53.628Z,1.05
2022-08-09T00:44:16.316Z,1.15
2022-08-09T00:49:16.661Z,1.38
2022-08-09T00:54:19.445Z,1.20
2022-08-09T00:59:40.408Z,1.00
2022-08-09T01:04:58.590Z,1.35
2022-08-09T01:10:06.051Z,1.50
2022-08-09T01:15:16.882Z,1.48
2022-08-09T01:20:39.905Z,1.40
2022-08-09T01:26:14.230Z,1.25
2022-08-09T01:31:23.396Z,2.10
2022-08-09T01:36:43.382Z,5.07
2022-08-09T01:41:53.743Z,7.70
2022-08-09T01:47:03.865Z,9.23
2022-08-09T01:52:14.655Z,8.20
2022-08-09T01:57:21.673Z,6.97
2022-08-09T02:02:30.873Z,2.40
2022-08-09T02:08:39.795Z,1.50
2022-08-09T02:13:04.047Z,1.58
2022-08-09T02:18:09.846Z,2.33
2022-08-09T02:23:20.669Z,2.50
2022-08-09T02:28:37.330Z,1.80
2022-08-09T02:34:07.556Z,1.30
2022-08-09T02:39:14.271Z,1.20
2022-08-09T02:44:29.617Z,1.13
2022-08-09T02:49:38.386Z,1.20
2022-08-09T02:54:51.452Z,0.90
2022-08-09T03:00:21.407Z,1.17
2022-08-09T03:05:19.432Z,1.05
2022-08-09T03:10:21.966Z,1.35
2022-08-09T03:15:24.974Z,1.10
2022-08-09T03:20:47.531Z,0.93
2022-08-09T03:25:59.218Z,0.90
2022-08-09T03:31:10.456Z,0.90
2022-08-09T03:36:27.666Z,0.70
2022-08-09T03:41:44.833Z,1.00
2022-08-09T03:46:50.657Z,1.33
2022-08-09T03:52:00.353Z,0.90
2022-08-09T03:57:18.595Z,0.93
2022-08-09T04:02:30.022Z,1.08
2022-08-09T04:07:47.477Z,1.25
2022-08-09T04:12:54.745Z,0.88
2022-08-09T04:17:57.729Z,1.17
2022-08-09T04:22:59.661Z,1.52
2022-08-09T04:28:03.696Z,0.90
2022-08-09T04:33:05.455Z,1.17
2022-08-09T04:38:09.394Z,0.90
2022-08-09T04:43:10.983Z,1.10
2022-08-09T04:48:15.338Z,1.33
2022-08-09T04:53:16.875Z,1.00
2022-08-09T04:58:18.485Z,1.00
2022-08-09T05:03:40.255Z,1.30
2022-08-09T05:08:43.931Z,1.25
2022-08-09T05:13:49.619Z,1.17
2022-08-09T05:18:59.183Z,1.10
2022-08-09T05:24:03.979Z,1.25
2022-08-09T05:29:06.326Z,0.70
2022-08-09T05:34:07.823Z,0.75
2022-08-09T05:39:28.590Z,0.77
2022-08-09T05:44:32.777Z,0.63
2022-08-09T05:50:35.097Z,0.90
2022-08-09T05:54:57.878Z,1.40
2022-08-09T06:00:07.941Z,0.80
2022-08-09T06:05:11.234Z,1.52
2022-08-09T06:10:18.012Z,1.27
2022-08-09T06:15:19.878Z,0.95
2022-08-09T06:20:21.464Z,1.52
2022-08-09T06:25:23.837Z,1.33
2022-08-09T06:30:25.446Z,0.95
2022-08-09T06:35:35.887Z,1.30
2022-08-09T06:40:50.041Z,1.10
2022-08-09T06:46:07.312Z,0.75
2022-08-09T06:51:13.037Z,0.85
2022-08-09T06:56:16.475Z,1.27
2022-08-09T07:01:21.468Z,0.65
2022-08-09T07:06:28.010Z,1.02
2022-08-09T07:11:34.349Z,0.98
2022-08-09T07:16:57.703Z,1.05
2022-08-09T07:22:00.061Z,1.13
2022-08-09T07:27:02.109Z,0.85
2022-08-09T07:32:04.643Z,1.13
2022-08-09T07:37:15.557Z,0.80
2022-08-09T07:42:17.714Z,1.05
2022-08-09T07:47:19.755Z,1.00
2022-08-09T07:52:22.767Z,0.95
2022-08-09T07:57:35.915Z,1.00
2022-08-09T08:02:42.272Z,0.93
2022-08-09T08:08:06.603Z,1.00
2022-08-09T08:13:06.194Z,1.13
2022-08-09T08:18:12.229Z,0.80
2022-08-09T08:23:17.926Z,0.85
2022-08-09T08:28:31.835Z,0.98
2022-08-09T08:33:49.593Z,0.95
2022-08-09T08:38:56.267Z,1.00
2022-08-09T08:44:03.551Z,1.13
2022-08-09T08:49:07.550Z,1.00
2022-08-09T08:54:20.413Z,0.77
2022-08-09T08:59:40.952Z,0.80
2022-08-09T09:04:53.077Z,0.80
2022-08-09T09:10:02.881Z,0.80
2022-08-09T09:15:07.070Z,1.05
2022-08-09T09:20:10.151Z,0.93
2022-08-09T09:26:05.035Z,1.20
2022-08-09T09:31:05.972Z,0.67
2022-08-09T09:36:20.181Z,1.00
2022-08-09T09:41:22.696Z,0.90
2022-08-09T09:46:46.026Z,0.90
2022-08-09T09:52:04.916Z,0.98
2022-08-09T09:58:02.644Z,0.70
2022-08-09T10:02:47.792Z,0.93
2022-08-09T10:08:11.305Z,1.27
2022-08-09T10:13:10.907Z,0.77
2022-08-09T10:18:24.880Z,0.90
2022-08-09T10:23:28.226Z,0.90
2022-08-09T10:28:32.214Z,0.95
2022-08-09T10:34:11.072Z,0.93
2022-08-09T10:38:59.931Z,1.00
2022-08-09T10:44:03.912Z,0.73
2022-08-09T10:49:50.283Z,0.90
2022-08-09T10:54:53.726Z,1.00
2022-08-09T10:59:58.343Z,1.00
2022-08-09T11:05:25.488Z,1.00
2022-08-09T11:10:41.019Z,0.85
2022-08-09T11:16:35.605Z,1.00
2022-08-09T11:22:04.824Z,1.60
2022-08-09T11:32:49.453Z,1.10
2022-08-09T11:37:53.364Z,1.30
2022-08-09T11:42:56.995Z,0.98
2022-08-09T11:48:25.154Z,1.23
2022-08-09T11:54:00.379Z,1.20
2022-08-09T11:59:00.061Z,1.08
2022-08-09T12:04:07.432Z,1.02
2022-08-09T12:09:21.071Z,1.30
2022-08-09T12:14:40.685Z,1.45
2022-08-09T12:19:53.009Z,1.00
2022-08-09T12:25:35.948Z,1.40
2022-08-09T12:30:39.411Z,1.10
2022-08-09T12:35:43.040Z,1.10
2022-08-09T12:40:46.285Z,1.00
2022-08-09T12:45:59.943Z,1.17
2022-08-09T12:51:03.738Z,1.15
2022-08-09T12:56:43.789Z,0.82
2022-08-09T13:01:49.730Z,1.00
2022-08-09T13:06:54.144Z,1.02
2022-08-09T13:12:03.977Z,0.85
2022-08-09T13:17:13.463Z,0.93
2022-08-09T13:22:37.548Z,1.00
2022-08-09T13:27:54.758Z,1.10
2022-08-09T13:32:58.083Z,1.20
2022-08-09T13:38:00.299Z,1.15
2022-08-09T13:43:05.264Z,0.90
2022-08-09T13:48:11.183Z,1.10
2022-08-09T13:53:12.695Z,1.08
2022-08-09T13:58:14.332Z,0.85
2022-08-09T14:03:57.952Z,1.42
2022-08-09T14:08:37.307Z,0.88
2022-08-09T14:14:22.668Z,1.38
2022-08-09T14:19:00.454Z,1.10
2022-08-09T14:24:18.770Z,0.80
2022-08-09T14:30:04.440Z,0.68
2022-08-09T14:34:46.219Z,0.90
2022-08-09T14:39:48.689Z,0.93
2022-08-09T14:45:00.015Z,0.70
2022-08-09T14:50:03.116Z,0.80
2022-08-09T14:55:08.209Z,0.73
2022-08-09T15:00:11.105Z,1.00
2022-08-09T15:05:13.865Z,0.80
2022-08-09T15:10:17.759Z,0.90
2022-08-09T15:15:20.072Z,0.88
2022-08-09T15:21:55.328Z,0.82
2022-08-09T15:25:43.702Z,0.82
2022-08-09T15:30:58.845Z,0.80
2022-08-09T15:36:06.794Z,0.68
2022-08-09T15:41:09.727Z,0.80
2022-08-09T15:46:32.610Z,0.80
2022-08-09T15:52:04.113Z,0.90
2022-08-09T15:56:54.869Z,1.05
2022-08-09T16:01:56.607Z,1.17
2022-08-09T16:06:58.748Z,0.90
2022-08-09T16:12:03.849Z,0.70
2022-08-09T16:17:05.576Z,0.70
2022-08-09T16:28:29.791Z,0.98
2022-08-09T16:33:35.890Z,1.00
2022-08-09T16:38:41.269Z,1.20
2022-08-09T16:43:42.921Z,1.00
2022-08-09T16:48:52.065Z,1.35
2022-08-09T16:54:27.677Z,1.00
2022-08-09T16:59:23.079Z,1.00
2022-08-09T17:04:28.266Z,1.00
2022-08-09T17:09:45.275Z,1.00
2022-08-09T17:14:50.704Z,0.80
2022-08-09T17:20:28.175Z,1.10
2022-08-09T17:25:22.196Z,1.00
2022-08-09T17:30:30.616Z,1.30
2022-08-09T17:35:34.751Z,1.05
2022-08-09T17:40:36.433Z,0.90
2022-08-09T17:46:03.829Z,1.13
2022-08-09T17:51:09.836Z,0.95
2022-08-09T17:56:27.604Z,1.25
2022-08-09T18:02:06.823Z,1.25
2022-08-09T18:06:55.195Z,1.15
2022-08-09T18:12:14.458Z,1.00
2022-08-09T18:17:27.161Z,1.30
2022-08-09T18:22:40.665Z,1.05
2022-08-09T18:28:04.880Z,1.05
2022-08-09T18:33:13.417Z,1.15
2022-08-09T18:38:15.409Z,1.30
2022-08-09T18:43:17.087Z,1.33
2022-08-09T18:48:18.785Z,1.42
2022-08-09T18:53:22.445Z,1.30
2022-08-09T18:58:32.144Z,0.90
2022-08-09T19:03:54.602Z,1.40
2022-08-09T19:09:03.103Z,1.02
2022-08-09T19:14:06.086Z,1.13
2022-08-09T19:19:25.257Z,1.00
2022-08-09T19:24:32.490Z,1.13
2022-08-09T19:30:24.769Z,1.10
2022-08-09T19:35:02.257Z,1.10
2022-08-09T19:40:05.767Z,1.13
2022-08-09T19:45:08.351Z,1.40
2022-08-09T19:50:49.587Z,1.15
2022-08-09T19:56:03.332Z,1.40
2022-08-09T20:01:08.162Z,1.15
2022-08-09T20:06:10.474Z,0.95
2022-08-09T20:11:42.806Z,1.20
2022-08-09T20:16:53.429Z,1.00
2022-08-09T20:21:59.789Z,1.13
2022-08-09T20:27:05.751Z,1.30
2022-08-09T20:32:30.922Z,1.20
2022-08-09T20:38:19.545Z,1.30
2022-08-09T20:43:00.457Z,1.33
2022-08-09T20:48:21.398Z,1.27
2022-08-09T20:53:37.174Z,1.40
2022-08-09T20:58:43.434Z,1.15
2022-08-09T21:05:48.262Z,1.60
2022-08-09T21:09:13.565Z,1.20
2022-08-09T21:14:16.673Z,1.35
2022-08-09T21:20:19.618Z,1.40
2022-08-09T21:25:01.149Z,1.23
2022-08-09T21:30:02.774Z,1.10
2022-08-09T21:35:04.533Z,1.20
2022-08-09T21:40:10.683Z,1.48
2022-08-09T21:45:17.414Z,1.50
2022-08-09T21:50:33.908Z,1.48
2022-08-09T21:55:40.116Z,1.20
2022-08-09T22:00:41.772Z,1.17
2022-08-09T22:05:43.320Z,1.20
2022-08-09T22:11:00.946Z,1.50
2022-08-09T22:16:09.641Z,1.20
2022-08-09T22:21:21.611Z,1.70
2022-08-09T22:26:35.435Z,1.00
2022-08-09T22:31:44.102Z,1.40
2022-08-09T22:36:46.756Z,1.17
2022-08-09T22:41:48.249Z,1.10
2022-08-09T22:48:16.314Z,1.30
2022-08-09T22:52:11.456Z,1.42
2022-08-09T22:57:13.002Z,1.17
2022-08-09T23:02:14.948Z,1.58
2022-08-09T23:08:21.202Z,1.58
2022-08-09T23:12:59.043Z,1.42
2022-08-09T23:18:00.486Z,1.38
2022-08-09T23:23:02.039Z,1.75
2022-08-09T23:28:15.828Z,1.40
2022-08-09T23:33:17.765Z,1.30
2022-08-09T23:38:21.096Z,1.67
2022-08-09T23:43:22.729Z,1.42
2022-08-09T23:48:24.193Z,1.45
2022-08-09T23:53:28.299Z,1.45
2022-08-09T23:58:36.578Z,1.65
